Time;durP1;ratioP1;P1;durP2;ratioP2;P2;SDS_P1;SDS_P2;PMS_P1;PMS_P2;Temp;Humidity;BMP_temperature;BMP_pressure;BME280_temperature;BME280_humidity;BME280_pressure;Samples;Min_cycle;Max_cycle;Signal;HPM_P1;HPM_P2
2021/05/19 00:03:14;;;;;;;17.90;6.97;;;8.10;95.70;;;;;;5016313;28;20106;-85
2021/05/19 00:09:05;;;;;;;20.60;6.88;;;8.00;95.70;;;;;;5016076;28;20036;-85
2021/05/19 00:14:53;;;;;;;18.23;7.22;;;8.00;95.70;;;;;;5015881;28;20441;-84
2021/05/19 00:20:42;;;;;;;20.08;7.57;;;8.00;95.70;;;;;;5015903;28;20040;-84
2021/05/19 00:26:31;;;;;;;22.83;6.35;;;7.90;95.80;;;;;;5015654;28;20068;-84
2021/05/19 00:32:20;;;;;;;25.10;8.85;;;7.90;95.80;;;;;;5015587;28;20037;-85
2021/05/19 00:38:09;;;;;;;27.92;9.48;;;7.90;95.90;;;;;;5015611;28;20106;-85
2021/05/19 00:47:52;;;;;;;28.50;8.80;;;8.00;96.00;;;;;;5015522;28;20045;-85
2021/05/19 00:53:40;;;;;;;24.05;8.60;;;8.00;96.10;;;;;;5015425;28;20513;-85
2021/05/19 00:59:28;;;;;;;25.23;8.75;;;8.10;96.20;;;;;;5015327;28;20083;-84
2021/05/19 01:05:33;;;;;;;27.20;9.15;;;8.20;96.10;;;;;;5014906;28;20552;-85
2021/05/19 01:11:22;;;;;;;25.83;8.45;;;8.20;95.90;;;;;;5014841;28;20065;-84
2021/05/19 01:17:12;;;;;;;23.00;7.95;;;8.10;95.80;;;;;;5014678;28;20493;-84
2021/05/19 01:23:03;;;;;;;24.25;8.15;;;8.00;95.70;;;;;;5014933;28;20509;-85
2021/05/19 01:28:51;;;;;;;21.40;8.32;;;7.90;95.70;;;;;;5014753;28;20061;-84
2021/05/19 01:34:39;;;;;;;25.42;8.07;;;7.80;95.70;;;;;;5014430;28;20109;-84
2021/05/19 01:40:28;;;;;;;26.75;8.70;;;7.80;95.70;;;;;;5014508;28;20064;-84
2021/05/19 01:50:22;;;;;;;22.38;7.80;;;7.80;95.90;;;;;;5014544;28;20097;-84
2021/05/19 01:56:10;;;;;;;21.80;8.13;;;7.80;95.80;;;;;;5014353;28;20033;-84
2021/05/19 02:01:59;;;;;;;24.25;8.10;;;7.80;95.80;;;;;;5014024;28;20053;-85
2021/05/19 02:07:47;;;;;;;27.70;9.10;;;7.70;95.80;;;;;;5013846;28;20064;-85
2021/05/19 02:13:36;;;;;;;29.52;9.48;;;7.80;96.00;;;;;;5013822;28;20161;-85
2021/05/19 02:19:24;;;;;;;24.23;8.50;;;7.70;95.80;;;;;;5013852;28;20076;-85
2021/05/19 02:25:14;;;;;;;26.27;8.50;;;7.60;95.60;;;;;;5014022;28;20049;-85
2021/05/19 02:31:02;;;;;;;26.42;9.40;;;7.50;95.60;;;;;;5016700;28;20413;-84
2021/05/19 02:36:54;;;;;;;24.42;7.28;;;7.40;95.60;;;;;;5018022;28;20429;-84
2021/05/19 02:42:43;;;;;;;26.50;9.40;;;7.20;95.50;;;;;;5017647;28;20450;-88
2021/05/19 02:52:31;;;;;;;43.50;14.00;;;7.10;95.60;;;;;;5017749;28;20096;-84
2021/05/19 02:58:19;;;;;;;30.35;11.80;;;7.10;95.60;;;;;;5017542;28;20033;-84
2021/05/19 03:04:09;;;;;;;33.30;11.57;;;7.00;95.60;;;;;;5017456;28;20087;-85
2021/05/19 03:09:59;;;;;;;36.92;12.30;;;6.90;95.60;;;;;;5017088;28;20112;-85
2021/05/19 03:15:48;;;;;;;34.95;12.38;;;6.90;95.70;;;;;;5017166;28;20068;-85
2021/05/19 03:21:36;;;;;;;38.60;12.35;;;6.90;95.80;;;;;;5016839;28;20100;-85
2021/05/19 03:27:25;;;;;;;38.17;12.65;;;6.90;95.80;;;;;;5016775;28;20116;-85
2021/05/19 03:33:13;;;;;;;35.03;11.13;;;6.90;95.80;;;;;;5016655;28;20032;-85
2021/05/19 03:39:04;;;;;;;36.47;11.75;;;6.90;95.80;;;;;;5016553;28;20037;-85
2021/05/19 03:44:53;;;;;;;32.20;11.48;;;6.90;95.80;;;;;;5016726;28;20052;-85
2021/05/19 03:54:36;;;;;;;29.10;10.75;;;6.90;95.80;;;;;;5016602;28;20088;-85
2021/05/19 04:00:29;;;;;;;32.40;11.15;;;6.90;95.90;;;;;;5016069;28;20386;-84
2021/05/19 04:06:21;;;;;;;26.23;9.95;;;6.90;95.90;;;;;;5016071;28;20053;-85
2021/05/19 04:12:10;;;;;;;36.72;11.32;;;7.10;96.10;;;;;;5015904;28;20030;-84
2021/05/19 04:17:59;;;;;;;47.70;14.65;;;7.30;96.30;;;;;;5015828;28;20036;-84
2021/05/19 04:23:49;;;;;;;54.63;14.50;;;7.50;96.30;;;;;;5016027;28;20167;-84
2021/05/19 04:29:37;;;;;;;42.03;12.98;;;7.70;96.30;;;;;;5015861;28;20092;-85
2021/05/19 04:35:26;;;;;;;34.38;12.32;;;7.80;96.20;;;;;;5015491;28;20021;-84
2021/05/19 04:41:14;;;;;;;38.90;12.52;;;7.90;96.10;;;;;;5015347;28;20072;-84
2021/05/19 04:47:03;;;;;;;61.58;15.00;;;8.00;96.20;;;;;;5015555;28;20029;-84
2021/05/19 04:56:46;;;;;;;63.97;14.00;;;8.20;96.30;;;;;;5015396;28;20036;-85
2021/05/19 05:02:34;;;;;;;75.95;17.80;;;8.40;96.40;;;;;;5014914;28;20135;-85
2021/05/19 05:08:22;;;;;;;72.95;16.20;;;8.60;96.40;;;;;;5015130;28;20438;-85
2021/05/19 05:14:11;;;;;;;81.03;17.38;;;8.70;96.40;;;;;;5014817;28;20108;-85
2021/05/19 05:20:01;;;;;;;51.58;13.90;;;8.80;96.40;;;;;;5014933;28;20033;-85
2021/05/19 05:25:50;;;;;;;76.88;19.10;;;9.00;96.40;;;;;;5014625;28;20469;-86
2021/05/19 05:31:38;;;;;;;96.35;19.63;;;9.10;96.40;;;;;;5014497;28;20032;-81
2021/05/19 05:37:27;;;;;;;76.90;18.83;;;9.30;96.50;;;;;;5014680;28;20033;-80
2021/05/19 05:43:15;;;;;;;65.10;17.58;;;9.30;96.20;;;;;;5014552;28;20100;-84
2021/05/19 05:49:06;;;;;;;59.70;17.10;;;9.40;96.30;;;;;;5014335;28;20489;-85
2021/05/19 05:58:50;;;;;;;56.15;14.30;;;9.60;96.40;;;;;;5014052;28;20445;-84
2021/05/19 06:04:38;;;;;;;63.10;17.60;;;9.70;96.30;;;;;;5013378;28;20033;-85
2021/05/19 06:10:27;;;;;;;60.58;17.60;;;9.80;96.30;;;;;;5014070;28;20068;-83
2021/05/19 06:16:16;;;;;;;55.78;17.05;;;9.90;96.30;;;;;;5013739;28;20057;-84
2021/05/19 06:28:50;;;;;;;56.67;14.32;;;10.20;96.40;;;;;;4995079;28;20030;-83
2021/05/19 06:34:38;;;;;;;56.95;16.73;;;10.30;96.50;;;;;;5013655;28;20044;-84
2021/05/19 06:40:27;;;;;;;49.67;13.38;;;10.70;96.70;;;;;;5013535;28;20425;-84
2021/05/19 06:46:26;;;;;;;29.27;8.57;;;10.90;96.50;;;;;;5013751;28;20433;-86
2021/05/19 06:52:15;;;;;;;38.08;12.65;;;10.90;96.30;;;;;;5013817;28;20057;-83
2021/05/19 07:02:05;;;;;;;37.08;12.38;;;11.00;96.30;;;;;;5013446;28;20088;-83
2021/05/19 07:07:58;;;;;;;257.17;33.90;;;11.10;96.40;;;;;;5013227;28;20117;-85
2021/05/19 07:20:39;;;;;;;38.47;12.30;;;11.40;96.50;;;;;;5000923;28;20045;-85
2021/05/19 07:26:40;;;;;;;43.03;15.68;;;11.50;96.30;;;;;;5017036;28;20064;-85
2021/05/19 07:32:31;;;;;;;53.83;19.13;;;11.80;97.30;;;;;;5016660;28;20037;-86
2021/05/19 07:38:32;;;;;;;36.05;13.70;;;12.40;97.20;;;;;;5016419;28;20502;-87
2021/05/19 07:44:22;;;;;;;31.70;13.27;;;13.10;97.80;;;;;;5016453;28;20410;-85
2021/05/19 07:50:12;;;;;;;33.10;12.40;;;13.60;97.20;;;;;;5016507;28;20041;-85
2021/05/19 07:56:07;;;;;;;34.35;12.98;;;13.40;95.90;;;;;;5016629;28;20071;-85
2021/05/19 08:02:07;;;;;;;26.30;11.10;;;13.40;96.80;;;;;;5016113;28;20597;-84
2021/05/19 08:07:56;;;;;;;31.13;12.73;;;13.90;97.40;;;;;;5015892;28;20037;-85
2021/05/19 08:13:47;;;;;;;21.40;10.65;;;14.20;96.60;;;;;;5016114;28;20159;-83
2021/05/19 08:19:35;;;;;;;27.38;12.60;;;14.50;97.40;;;;;;5015814;28;20080;-84
2021/05/19 08:25:24;;;;;;;24.58;12.00;;;15.00;97.40;;;;;;5015601;28;20176;-84
2021/05/19 08:31:15;;;;;;;21.35;9.82;;;15.10;96.60;;;;;;5015453;28;20037;-83
2021/05/19 08:37:04;;;;;;;21.35;10.90;;;14.80;96.10;;;;;;5015479;28;20088;-83
2021/05/19 08:42:52;;;;;;;21.45;10.23;;;14.90;96.70;;;;;;5015636;28;20500;-84
2021/05/19 08:48:50;;;;;;;19.08;10.20;;;15.20;97.30;;;;;;5015269;28;20492;-83
2021/05/19 08:54:39;;;;;;;17.60;9.52;;;15.80;97.20;;;;;;5015355;28;20156;-83
2021/05/19 09:04:27;;;;;;;17.98;10.13;;;16.00;96.60;;;;;;5015268;28;20045;-84
2021/05/19 09:10:17;;;;;;;16.65;10.70;;;16.50;97.30;;;;;;5014779;28;20174;-84
2021/05/19 09:16:07;;;;;;;15.10;8.63;;;16.40;96.00;;;;;;5014763;28;20040;-86
2021/05/19 09:21:56;;;;;;;12.30;7.60;;;15.90;95.60;;;;;;5014615;28;20048;-85
2021/05/19 09:27:48;;;;;;;16.45;9.00;;;15.60;96.30;;;;;;5014705;28;20544;-84
2021/05/19 09:33:35;;;;;;;26.13;13.57;;;16.00;97.10;;;;;;5014635;28;20041;-84
2021/05/19 09:39:23;;;;;;;17.80;10.10;;;16.70;97.60;;;;;;5014535;28;20045;-83
2021/05/19 09:45:31;;;;;;;18.95;9.13;;;16.60;96.40;;;;;;5014373;28;20029;-83
2021/05/19 09:51:27;;;;;;;16.92;9.75;;;16.50;96.80;;;;;;5014123;28;20029;-83
2021/05/19 09:57:15;;;;;;;18.05;10.90;;;16.70;96.70;;;;;;5014286;28;20044;-83
2021/05/19 10:07:17;;;;;;;14.68;9.05;;;16.70;95.90;;;;;;5014154;28;20495;-83
2021/05/19 10:13:08;;;;;;;12.93;8.30;;;16.70;96.40;;;;;;5014049;28;20084;-82
2021/05/19 10:18:58;;;;;;;13.55;5.88;;;17.10;97.40;;;;;;5013789;28;20036;-83
2021/05/19 10:25:02;;;;;;;13.18;8.10;;;17.60;97.00;;;;;;5014286;28;20125;-83
2021/05/19 10:30:57;;;;;;;15.90;8.38;;;17.60;96.50;;;;;;5013911;28;20083;-83
2021/05/19 10:36:46;;;;;;;11.43;6.32;;;17.60;96.00;;;;;;5013922;28;20092;-84
2021/05/19 10:42:36;;;;;;;12.25;5.68;;;17.30;96.40;;;;;;5013479;28;20049;-84
2021/05/19 10:48:32;;;;;;;13.45;7.97;;;17.80;97.30;;;;;;5013664;28;20028;-85
2021/05/19 11:00:32;;;;;;;9.60;5.05;;;19.00;96.20;;;;;;5017304;28;20076;-85
2021/05/19 11:07:07;;;;;;;8.70;4.38;;;19.10;95.10;;;;;;5015827;28;20552;-85
2021/05/19 11:12:56;;;;;;;7.78;3.45;;;18.30;95.00;;;;;;5017076;28;20363;-85
2021/05/19 11:19:01;;;;;;;7.47;3.45;;;18.10;95.40;;;;;;5017241;28;20072;-86
2021/05/19 11:24:52;;;;;;;7.25;2.50;;;18.30;96.00;;;;;;5016870;28;20096;-85
2021/05/19 11:30:41;;;;;;;63.97;11.43;;;18.90;97.40;;;;;;5016695;28;20037;-85
2021/05/19 11:36:31;;;;;;;6.82;3.55;;;19.70;96.30;;;;;;5016853;28;20033;-85
2021/05/19 11:42:30;;;;;;;7.68;3.70;;;19.50;95.10;;;;;;5016478;28;20413;-86
2021/05/19 11:48:29;;;;;;;12.75;4.25;;;20.10;96.40;;;;;;5016570;28;20076;-86
2021/05/19 11:54:19;;;;;;;10.38;3.65;;;20.80;94.20;;;;;;5016574;28;20037;-86
2021/05/19 12:00:08;;;;;;;7.78;3.50;;;21.80;97.10;;;;;;5016374;28;20096;-86
2021/05/19 12:06:04;;;;;;;7.40;3.30;;;23.90;97.50;;;;;;5016010;28;20065;-86
2021/05/19 12:11:53;;;;;;;5.97;2.20;;;25.60;96.30;;;;;;5016270;28;20040;-85
2021/05/19 12:17:42;;;;;;;2.25;1.58;;;26.70;96.10;;;;;;5016201;28;20533;-85
2021/05/19 12:23:31;;;;;;;2.00;1.80;;;27.70;93.20;;;;;;5016047;28;20049;-85
2021/05/19 12:29:43;;;;;;;2.00;1.80;;;25.80;88.90;;;;;;5015893;28;20037;-86
2021/05/19 12:35:35;;;;;;;2.22;1.67;;;23.30;88.90;;;;;;5015594;28;20136;-87
2021/05/19 12:41:41;;;;;;;1.95;1.58;;;21.70;91.80;;;;;;5010220;28;20044;-86
2021/05/19 12:47:13;;;;;;;3.42;1.90;;;21.20;93.10;;;;;;5015314;28;20365;-86
2021/05/19 12:53:02;;;;;;;2.83;2.00;;;20.90;93.40;;;;;;5015189;28;20159;-86
2021/05/19 12:58:56;;;;;;;4.85;2.55;;;20.80;94.40;;;;;;5015037;28;20028;-86
2021/05/19 13:04:51;;;;;;;2.65;2.00;;;25.00;99.90;;;;;;5014911;28;20045;-87
2021/05/19 13:10:55;;;;;;;3.70;2.33;;;28.80;99.30;;;;;;5015089;28;20145;-87
2021/05/19 13:16:48;;;;;;;8.77;2.00;;;31.20;95.30;;;;;;5015064;28;20092;-87
2021/05/19 13:22:39;;;;;;;4.50;2.30;;;30.20;90.00;;;;;;5014709;28;20113;-87
2021/05/19 13:28:30;;;;;;;2.55;1.90;;;27.20;83.20;;;;;;5014720;28;20037;-87
2021/05/19 13:40:09;;;;;;;3.20;1.73;;;25.50;93.30;;;;;;5014395;28;20053;-85
2021/05/19 13:45:59;;;;;;;2.15;1.50;;;27.60;92.70;;;;;;5014226;28;20095;-86
2021/05/19 13:52:13;;;;;;;1.92;1.30;;;26.20;91.10;;;;;;5014150;28;20077;-86
2021/05/19 13:58:03;;;;;;;2.15;1.08;;;24.90;88.40;;;;;;5014093;28;20053;-85
2021/05/19 14:03:52;;;;;;;3.63;1.13;;;23.20;87.60;;;;;;5014366;28;20112;-85
2021/05/19 14:13:48;;;;;;;2.90;1.25;;;20.40;88.80;;;;;;5014191;28;20060;-85
2021/05/19 14:20:15;;;;;;;1.65;1.40;;;19.10;91.00;;;;;;5013765;28;20125;-85
2021/05/19 14:29:02;;;;;;;1.83;1.40;;;18.30;93.00;;;;;;4985476;28;20044;-85
2021/05/19 14:34:54;;;;;;;2.17;1.38;;;18.70;94.30;;;;;;5013866;28;20060;-85
2021/05/19 15:05:23;;;;;;;1.15;0.95;;;25.50;95.20;;;;;;4934437;29;20507;-87
2021/05/19 15:14:49;;;;;;;3.08;1.73;;;26.80;90.10;;;;;;4934436;29;20046;-87
2021/05/19 15:20:50;;;;;;;2.30;1.30;;;28.20;98.10;;;;;;5013216;28;20521;-87
2021/05/19 15:26:40;;;;;;;1.83;1.50;;;33.10;99.90;;;;;;5013469;28;20087;-87
2021/05/19 15:32:28;;;;;;;5.28;1.30;;;37.20;97.30;;;;;;5013317;28;20497;-87
2021/05/19 15:38:18;;;;;;;1.23;1.13;;;39.00;91.30;;;;;;5015556;28;20033;-84
2021/05/19 15:44:07;;;;;;;1.65;1.20;;;39.40;87.30;;;;;;5016575;28;20056;-85
2021/05/19 15:49:56;;;;;;;2.58;1.40;;;39.10;88.50;;;;;;5016557;28;20056;-88
2021/05/19 15:55:47;;;;;;;1.35;1.25;;;38.10;82.10;;;;;;5016462;28;20037;-91
2021/05/19 16:01:39;;;;;;;2.85;1.40;;;36.80;79.40;;;;;;5016085;28;20084;-88
2021/05/19 16:07:31;;;;;;;2.10;1.30;;;35.30;85.60;;;;;;5016055;28;20021;-87
2021/05/19 16:17:46;;;;;;;;;;;;;;;;;;;;;
2021/05/19 16:24:08;;;;;;;3.45;1.70;;;33.30;86.70;;;;;;5015935;28;20148;-87
2021/05/19 16:37:03;;;;;;;3.50;1.63;;;27.50;81.00;;;;;;4980649;28;20033;-88
2021/05/19 16:42:52;;;;;;;1.58;1.15;;;25.60;84.90;;;;;;5015373;28;20554;-84
2021/05/19 16:48:40;;;;;;;2.92;1.75;;;24.60;88.10;;;;;;5014777;28;20029;-85
2021/05/19 16:54:42;;;;;;;5.68;2.00;;;23.80;88.90;;;;;;5015433;28;20501;-88
2021/05/19 17:00:33;;;;;;;3.47;2.00;;;23.10;89.30;;;;;;5011346;28;20037;-85
2021/05/19 17:06:22;;;;;;;6.25;2.72;;;22.30;90.00;;;;;;5015042;28;20083;-86
2021/05/19 17:12:11;;;;;;;4.22;2.10;;;21.90;90.50;;;;;;5014854;28;20032;-84
2021/05/19 17:18:01;;;;;;;3.70;1.88;;;21.70;90.80;;;;;;5015063;28;20048;-84
2021/05/19 17:23:49;;;;;;;3.83;1.98;;;22.40;93.40;;;;;;5014657;28;20057;-84
2021/05/19 17:29:39;;;;;;;3.97;1.92;;;22.50;90.00;;;;;;5014860;28;20113;-84
2021/05/19 17:35:28;;;;;;;3.72;1.80;;;21.80;91.00;;;;;;5014744;28;20044;-84
2021/05/19 17:41:21;;;;;;;2.72;1.50;;;21.40;90.70;;;;;;5014346;28;20169;-84
2021/05/19 17:47:11;;;;;;;5.47;2.35;;;20.70;90.90;;;;;;5014255;28;20156;-84
2021/05/19 17:53:00;;;;;;;2.05;1.40;;;20.10;91.20;;;;;;5014164;28;20075;-84
2021/05/19 17:58:48;;;;;;;3.92;1.88;;;19.70;91.30;;;;;;5014270;28;20520;-84
2021/05/19 18:04:38;;;;;;;2.05;1.58;;;19.40;92.20;;;;;;5013951;28;20168;-84
2021/05/19 18:10:27;;;;;;;3.03;1.95;;;19.20;92.00;;;;;;5014188;28;20044;-84
2021/05/19 18:20:16;;;;;;;1.75;1.40;;;18.50;91.90;;;;;;5014101;28;20068;-84
2021/05/19 18:26:08;;;;;;;3.55;1.65;;;18.00;91.70;;;;;;5013815;28;20029;-85
2021/05/19 18:32:08;;;;;;;3.03;1.90;;;17.50;92.10;;;;;;5014155;28;20081;-83
2021/05/19 18:37:56;;;;;;;2.95;1.90;;;17.00;92.20;;;;;;5013758;28;20029;-83
2021/05/19 18:43:44;;;;;;;2.85;1.88;;;16.70;92.40;;;;;;5014059;28;20092;-83
2021/05/19 18:49:35;;;;;;;4.07;2.10;;;16.50;92.70;;;;;;5013646;28;20040;-84
2021/05/19 18:55:24;;;;;;;4.95;2.25;;;16.30;92.80;;;;;;5013370;28;20033;-83
2021/05/19 19:01:12;;;;;;;6.68;2.67;;;16.00;92.70;;;;;;5013468;28;20124;-85
2021/05/19 19:07:02;;;;;;;7.97;3.40;;;15.70;92.80;;;;;;5013639;28;20541;-83
2021/05/19 19:13:00;;;;;;;6.07;2.10;;;15.20;92.70;;;;;;5015148;28;20536;-87
2021/05/19 19:22:51;;;;;;;6.55;2.20;;;14.90;93.20;;;;;;5017154;28;20099;-87
2021/05/19 19:28:40;;;;;;;4.10;1.98;;;14.60;93.30;;;;;;5016820;28;20482;-87
2021/05/19 19:34:27;;;;;;;6.45;2.10;;;14.50;93.40;;;;;;5017897;28;20048;-88
2021/05/19 19:40:16;;;;;;;5.65;2.33;;;14.40;93.40;;;;;;5017171;28;20036;-87
2021/05/19 19:46:06;;;;;;;4.80;2.20;;;14.10;93.30;;;;;;5016939;28;20064;-86
2021/05/19 19:51:58;;;;;;;7.38;2.40;;;13.90;93.50;;;;;;5016582;28;20551;-87
2021/05/19 19:57:46;;;;;;;6.13;2.40;;;13.70;93.70;;;;;;5016379;28;20033;-87
2021/05/19 20:03:41;;;;;;;5.70;2.40;;;13.80;94.10;;;;;;5016221;28;20055;-86
2021/05/19 20:09:29;;;;;;;5.05;2.10;;;13.80;94.20;;;;;;5011876;28;20076;-85
2021/05/19 20:15:18;;;;;;;4.68;2.35;;;13.80;94.20;;;;;;5015886;28;20036;-85
2021/05/19 20:25:09;;;;;;;5.55;2.20;;;13.60;94.10;;;;;;5014935;28;20097;-84
2021/05/19 20:30:58;;;;;;;5.70;2.38;;;13.50;94.10;;;;;;5015718;28;20383;-85
2021/05/19 20:36:48;;;;;;;8.82;2.55;;;13.50;94.20;;;;;;5015545;28;20037;-85
2021/05/19 20:42:41;;;;;;;6.65;2.38;;;13.40;94.20;;;;;;5015375;28;20049;-87
2021/05/19 20:48:29;;;;;;;7.22;2.78;;;13.20;94.00;;;;;;5015635;28;20126;-87
2021/05/19 20:54:18;;;;;;;5.90;2.40;;;13.00;94.00;;;;;;5015459;28;20049;-86
2021/05/19 21:00:07;;;;;;;6.22;2.25;;;13.00;94.30;;;;;;5015359;28;20072;-86
2021/05/19 21:05:55;;;;;;;7.25;2.20;;;12.90;94.30;;;;;;5015060;28;20045;-86
2021/05/19 21:11:45;;;;;;;7.35;2.75;;;12.80;94.20;;;;;;5015234;28;20520;-85
2021/05/19 21:17:34;;;;;;;5.53;2.30;;;12.70;94.20;;;;;;5014813;28;20386;-86
2021/05/19 21:27:21;;;;;;;5.47;2.35;;;12.40;94.10;;;;;;5014801;28;20103;-86
2021/05/19 21:33:10;;;;;;;3.58;1.90;;;12.30;94.30;;;;;;5014562;28;20497;-86
2021/05/19 21:38:59;;;;;;;5.60;2.00;;;12.20;94.20;;;;;;5014522;28;20196;-86
2021/05/19 21:44:48;;;;;;;3.25;2.22;;;12.20;94.30;;;;;;5014593;28;20064;-86
2021/05/19 21:50:36;;;;;;;4.63;1.90;;;12.20;94.30;;;;;;5014548;28;20064;-86
2021/05/19 21:56:25;;;;;;;4.15;2.10;;;12.00;94.10;;;;;;5014192;28;20036;-86
2021/05/19 22:02:14;;;;;;;4.82;2.30;;;12.00;94.50;;;;;;5014174;28;20059;-85
2021/05/19 22:08:03;;;;;;;6.53;2.30;;;12.00;94.50;;;;;;5013919;28;20029;-86
2021/05/19 22:13:52;;;;;;;5.15;2.38;;;11.90;94.30;;;;;;5014103;28;20032;-86
2021/05/19 22:19:52;;;;;;;4.70;2.10;;;11.80;94.40;;;;;;5014034;28;20041;-86
2021/05/19 22:29:42;;;;;;;7.40;2.50;;;11.80;94.50;;;;;;5014133;28;20076;-86
2021/05/19 22:35:31;;;;;;;7.43;2.58;;;11.80;94.60;;;;;;5013800;28;20073;-86
2021/05/19 22:41:23;;;;;;;4.72;2.40;;;11.80;94.60;;;;;;5013604;28;20379;-85
2021/05/19 22:47:12;;;;;;;6.78;2.25;;;11.80;94.60;;;;;;5014926;28;20048;-85
2021/05/19 22:53:01;;;;;;;6.10;2.40;;;11.80;94.70;;;;;;5017569;28;20041;-85
2021/05/19 22:58:50;;;;;;;5.50;2.40;;;11.90;94.70;;;;;;5017493;28;20113;-85
2021/05/19 23:04:38;;;;;;;6.25;2.60;;;11.80;94.60;;;;;;5017390;28;20036;-84
2021/05/19 23:10:27;;;;;;;5.50;2.35;;;11.80;94.80;;;;;;5017274;28;20088;-84
2021/05/19 23:16:15;;;;;;;4.25;2.30;;;11.80;94.80;;;;;;5017436;28;20152;-84
2021/05/19 23:22:03;;;;;;;4.35;2.30;;;11.80;94.80;;;;;;5017166;28;20048;-85
2021/05/19 23:31:56;;;;;;;13.30;2.92;;;11.90;94.80;;;;;;5017251;28;20156;-85
2021/05/19 23:37:45;;;;;;;6.53;2.33;;;11.90;94.90;;;;;;5017029;28;20397;-85
2021/05/19 23:43:33;;;;;;;4.95;2.28;;;11.90;94.80;;;;;;5023692;28;20044;-86
2021/05/19 23:49:22;;;;;;;5.43;2.10;;;11.90;94.70;;;;;;5020081;28;20390;-85
2021/05/19 23:55:12;;;;;;;5.85;2.30;;;11.90;94.80;;;;;;5017242;28;20076;-85
